Weather at Yokota Air Base

Public forecast

Using degrees Celsius for public forecast. Weather courtesy of forecast.io.

Current aviation weather report (METAR) for Yokota Air Base

2024/05/18 13:55 (retrieved 29 minutes ago)

RJTY 181355Z AUTO 20003KT 10SM CLR 18/12 A3010 RMK AO2 SLP194 T01810116

Aviation forecast (TAF) for Yokota Air Base

2024/05/18 13:11 (retrieved 1 hour ago)

TAF RJTY 181300Z 1813/1919 VRB06KT 9999 FEW030 QNH3009INS BECMG 1910/1911 18009KT 9999 SCT025 BKN030 QNH3010INS BECMG 1912/1913 VRB06KT 8000 -RA SCT010 OVC015 QNH3002INS TX21/1905Z TN15/1820Z